createdAt,value
2023-03-06T00:04:09.643Z,2.89
2023-03-06T00:09:11.187Z,2.85
2023-03-06T00:14:12.702Z,2.87
2023-03-06T00:19:14.670Z,2.9
2023-03-06T00:24:16.608Z,2.85
2023-03-06T00:29:18.001Z,2.83
2023-03-06T00:34:19.620Z,2.82
2023-03-06T00:39:21.024Z,2.83
2023-03-06T00:44:32.786Z,2.8
2023-03-06T00:49:24.786Z,2.76
2023-03-06T00:54:26.583Z,2.74
2023-03-06T00:59:28.357Z,2.77
2023-03-06T01:04:30.112Z,2.78
2023-03-06T01:09:31.335Z,2.77
2023-03-06T01:14:33.397Z,2.76
2023-03-06T01:19:35.550Z,2.76
2023-03-06T01:24:37.251Z,2.77
2023-03-06T01:29:38.620Z,2.74
2023-03-06T01:34:40.244Z,2.69
2023-03-06T01:39:42.030Z,2.7
2023-03-06T02:04:50.484Z,2.48
2023-03-06T02:09:51.893Z,2.39
2023-03-06T02:24:56.981Z,2.27
2023-03-06T02:35:06.706Z,2.1
2023-03-06T02:40:07.952Z,2.1
2023-03-06T02:50:05.279Z,2.14
2023-03-06T02:55:07.510Z,2.1
2023-03-06T03:00:09.192Z,2.08
2023-03-06T03:05:10.468Z,2.09
2023-03-06T03:10:11.723Z,2.11
2023-03-06T03:15:13.745Z,2.08
2023-03-06T03:20:15.702Z,2.06
2023-03-06T03:25:16.995Z,2.06
2023-03-06T03:30:18.932Z,2.06
2023-03-06T03:35:21.071Z,2.04
2023-03-06T03:40:22.822Z,1.96
2023-03-06T03:45:24.090Z,1.93
2023-03-06T03:50:25.795Z,1.94
2023-03-06T03:55:27.736Z,1.9
2023-03-06T04:00:29.219Z,1.83
2023-03-06T04:05:31.195Z,1.83
2023-03-06T04:10:33.156Z,1.84
2023-03-06T04:15:34.612Z,1.8
2023-03-06T04:20:36.056Z,1.75
2023-03-06T04:25:37.494Z,1.75
2023-03-06T04:30:39.189Z,1.77
2023-03-06T04:35:40.778Z,1.74
2023-03-06T04:40:43.918Z,1.7
2023-03-06T04:45:43.882Z,1.69
2023-03-06T04:50:45.879Z,1.71
2023-03-06T04:55:47.799Z,1.76
2023-03-06T05:00:49.708Z,1.75
2023-03-06T05:05:51.315Z,1.77
2023-03-06T05:10:52.788Z,1.81
2023-03-06T05:15:54.025Z,1.85
2023-03-06T05:20:55.957Z,1.86
2023-03-06T05:25:58.125Z,1.86
2023-03-06T05:31:00.687Z,1.88
2023-03-06T05:36:01.860Z,1.93
2023-03-06T05:41:06.265Z,1.94
2023-03-06T05:46:03.604Z,1.91
2023-03-06T05:51:05.512Z,1.95
2023-03-06T05:56:17.611Z,2.01
2023-03-06T06:01:09.615Z,2.03
2023-03-06T06:06:11.224Z,2.02
2023-03-06T06:11:13.216Z,2.06
2023-03-06T06:16:15.192Z,2.14
2023-03-06T06:21:17.219Z,2.18
2023-03-06T06:26:19.493Z,2.2
2023-03-06T06:31:20.900Z,2.26
2023-03-06T06:36:22.070Z,2.31
2023-03-06T06:51:27.008Z,2.41
2023-03-06T06:56:28.137Z,2.5
2023-03-06T07:01:29.864Z,2.58
2023-03-06T07:06:31.773Z,2.62
2023-03-06T07:11:33.099Z,2.69
2023-03-06T07:16:34.660Z,2.78
2023-03-06T07:21:36.062Z,2.9
2023-03-06T07:26:37.357Z,3
2023-03-06T07:31:38.853Z,3.06
2023-03-06T07:36:40.886Z,3.18
2023-03-06T07:41:42.429Z,3.34
2023-03-06T07:46:43.909Z,3.42
2023-03-06T07:51:45.390Z,3.51
2023-03-06T07:56:46.595Z,3.59
2023-03-06T08:01:48.654Z,3.63
2023-03-06T08:06:49.849Z,3.69
2023-03-06T08:11:50.972Z,3.77
2023-03-06T08:16:52.649Z,3.99
2023-03-06T08:21:54.526Z,4.21
2023-03-06T08:26:56.210Z,4.37
2023-03-06T08:31:57.763Z,4.57
2023-03-06T08:37:09.792Z,4.77
2023-03-06T08:42:02.300Z,4.92
2023-03-06T08:47:02.998Z,5.04
2023-03-06T08:52:04.320Z,5.17
2023-03-06T08:57:05.884Z,5.28
2023-03-06T09:02:07.351Z,5.41
2023-03-06T09:07:08.738Z,5.46
2023-03-06T09:12:10.116Z,5.55
2023-03-06T09:17:12.367Z,5.66
2023-03-06T09:22:13.575Z,5.76
2023-03-06T09:27:15.426Z,5.83
2023-03-06T09:32:16.701Z,5.89
2023-03-06T09:37:18.965Z,5.97
2023-03-06T09:42:20.729Z,6.04
2023-03-06T09:47:22.073Z,6.03
2023-03-06T09:52:23.438Z,6.05
2023-03-06T09:57:25.146Z,6.04
2023-03-06T10:02:26.590Z,6.02
2023-03-06T10:07:28.013Z,6
2023-03-06T10:12:30.061Z,6.02
2023-03-06T10:17:31.835Z,6.08
2023-03-06T10:22:33.148Z,6.15
2023-03-06T10:27:34.736Z,6.16
2023-03-06T10:32:46.398Z,6.28
2023-03-06T10:37:37.431Z,6.22
2023-03-06T10:42:39.053Z,6.05
2023-03-06T10:47:40.733Z,6.02
2023-03-06T10:52:42.758Z,6.09
2023-03-06T10:57:44.356Z,6.19
2023-03-06T11:02:45.718Z,6.21
2023-03-06T11:07:46.865Z,6.25
2023-03-06T11:12:48.866Z,6.29
2023-03-06T11:17:50.802Z,6.29
2023-03-06T11:23:02.374Z,6.18
2023-03-06T11:27:53.769Z,6.22
2023-03-06T11:32:55.498Z,6.28
2023-03-06T11:37:57.344Z,6.37
2023-03-06T11:42:59.158Z,6.31
2023-03-06T11:48:07.548Z,6.34
2023-03-06T11:53:09.526Z,6.33
2023-03-06T11:58:11.065Z,6.33
2023-03-06T12:03:12.405Z,6.18
2023-03-06T12:08:13.796Z,6.19
2023-03-06T12:13:15.292Z,6.16
2023-03-06T12:18:17.132Z,6.15
2023-03-06T12:23:18.453Z,6.1
2023-03-06T12:28:20.228Z,6.23
2023-03-06T12:33:22.198Z,6.4
2023-03-06T12:38:23.630Z,6.46
2023-03-06T12:43:24.834Z,6.34
2023-03-06T12:48:26.348Z,6.37
2023-03-06T12:53:28.221Z,6.44
2023-03-06T12:58:30.182Z,6.41
2023-03-06T13:03:31.953Z,6.32
2023-03-06T13:08:33.340Z,6.4
2023-03-06T13:13:35.314Z,6.48
2023-03-06T13:18:36.469Z,6.46
2023-03-06T13:23:39.145Z,6.5
2023-03-06T13:28:40.115Z,6.56
2023-03-06T13:33:42.038Z,6.52
2023-03-06T13:38:43.576Z,6.5
2023-03-06T13:43:45.504Z,6.54
2023-03-06T13:48:46.507Z,6.63
2023-03-06T13:53:48.453Z,6.64
2023-03-06T13:58:50.211Z,6.55
2023-03-06T14:03:52.050Z,6.58
2023-03-06T14:08:53.976Z,6.67
2023-03-06T14:13:55.441Z,6.65
2023-03-06T14:18:57.428Z,6.63
2023-03-06T14:24:00.374Z,6.68
2023-03-06T14:29:10.285Z,6.77
2023-03-06T14:34:03.646Z,6.8
2023-03-06T14:39:03.469Z,6.83
2023-03-06T14:44:05.001Z,6.9
2023-03-06T14:49:07.197Z,6.86
2023-03-06T14:54:09.425Z,6.82
2023-03-06T14:59:10.630Z,6.89
2023-03-06T15:04:12.700Z,6.95
2023-03-06T15:09:14.130Z,6.93
2023-03-06T15:14:15.518Z,6.92
2023-03-06T15:19:17.117Z,6.97
2023-03-06T15:24:18.589Z,7.02
2023-03-06T15:29:19.901Z,6.96
2023-03-06T15:34:21.254Z,6.92
2023-03-06T15:39:23.016Z,6.89
2023-03-06T15:44:24.690Z,6.81
2023-03-06T15:49:26.689Z,6.68
2023-03-06T15:54:28.521Z,6.65
2023-03-06T15:59:29.746Z,6.59
2023-03-06T16:04:31.947Z,6.49
2023-03-06T16:09:33.010Z,6.34
2023-03-06T16:14:34.936Z,6.33
2023-03-06T16:19:46.930Z,6.31
2023-03-06T16:24:38.477Z,6.24
2023-03-06T16:29:40.042Z,6.19
2023-03-06T16:34:41.572Z,6.11
2023-03-06T16:39:43.280Z,5.97
2023-03-06T16:44:53.615Z,5.74
2023-03-06T17:04:53.543Z,5.31
2023-03-06T17:14:53.927Z,5.29
2023-03-06T17:24:57.005Z,5.37
2023-03-06T17:35:04.784Z,5.34
2023-03-06T17:40:03.647Z,5.23
2023-03-06T17:55:06.931Z,5.01
2023-03-06T18:05:09.854Z,4.83
2023-03-06T18:10:11.875Z,4.79
2023-03-06T18:15:13.232Z,4.71
2023-03-06T18:20:15.363Z,4.6
2023-03-06T18:30:18.821Z,4.52
2023-03-06T18:35:20.359Z,4.44
2023-03-06T18:40:24.548Z,4.4
2023-03-06T18:45:23.973Z,4.39
2023-03-06T18:50:25.435Z,4.37
2023-03-06T18:55:27.182Z,4.33
2023-03-06T19:00:28.976Z,4.28
2023-03-06T19:05:30.393Z,4.28
2023-03-06T19:10:32.006Z,4.3
2023-03-06T19:15:33.805Z,4.21
2023-03-06T19:20:35.779Z,4.17
2023-03-06T19:25:37.603Z,4.17
2023-03-06T19:30:39.229Z,4.12
2023-03-06T19:35:41.151Z,4.06
2023-03-06T19:40:43.148Z,4.01
2023-03-06T19:45:45.253Z,4
2023-03-06T19:50:46.705Z,3.98
2023-03-06T19:55:48.052Z,3.92
2023-03-06T20:00:49.585Z,3.79
2023-03-06T20:05:50.670Z,3.79
2023-03-06T20:10:52.461Z,3.78
2023-03-06T20:15:54.220Z,3.76
2023-03-06T20:20:56.344Z,3.76
2023-03-06T20:25:58.192Z,3.79
2023-03-06T20:31:00.034Z,3.81
2023-03-06T20:36:01.689Z,3.79
2023-03-06T20:41:02.871Z,3.73
2023-03-06T20:46:04.411Z,3.75
2023-03-06T20:51:06.111Z,3.78
2023-03-06T20:56:08.263Z,3.76
2023-03-06T21:01:10.827Z,3.74
2023-03-06T21:06:11.304Z,3.77
2023-03-06T21:11:12.526Z,3.81
2023-03-06T21:16:13.808Z,3.8
2023-03-06T21:21:15.480Z,3.77
2023-03-06T21:26:17.186Z,3.79
2023-03-06T21:31:18.576Z,3.82
2023-03-06T21:36:23.721Z,3.78
2023-03-06T21:41:21.938Z,3.76
2023-03-06T21:46:23.199Z,3.78
2023-03-06T21:51:25.125Z,3.79
2023-03-06T21:56:26.911Z,3.78
2023-03-06T22:01:28.296Z,3.75
2023-03-06T22:06:30.348Z,3.76
2023-03-06T22:11:31.746Z,3.77
2023-03-06T22:16:33.285Z,3.75
2023-03-06T22:21:34.765Z,3.71
2023-03-06T22:26:36.334Z,3.73
2023-03-06T22:31:39.932Z,3.76
2023-03-06T22:36:38.937Z,3.74
2023-03-06T22:41:40.506Z,3.68
2023-03-06T22:46:41.954Z,3.69
2023-03-06T22:51:43.892Z,3.71
2023-03-06T22:56:45.894Z,3.73
2023-03-06T23:12:11.664Z,3.7
2023-03-06T23:16:52.308Z,3.68
2023-03-06T23:21:54.126Z,3.64
2023-03-06T23:26:56.124Z,3.62
2023-03-06T23:31:57.743Z,3.62
2023-03-06T23:36:59.041Z,3.59
2023-03-06T23:42:00.887Z,3.56
2023-03-06T23:47:02.381Z,3.52
2023-03-06T23:52:03.572Z,3.53
2023-03-06T23:57:04.782Z,3.53
